createdAt,value
2017-12-05T00:00:30.357Z,0.00
2017-12-05T00:01:30.491Z,0.00
2017-12-05T00:02:31.859Z,0.00
2017-12-05T00:03:31.018Z,0.00
2017-12-05T00:04:30.920Z,0.00
2017-12-05T00:05:30.572Z,0.00
2017-12-05T00:06:32.022Z,0.00
2017-12-05T00:07:31.108Z,0.00
2017-12-05T00:08:58.299Z,0.00
2017-12-05T00:09:59.730Z,0.00
2017-12-05T00:11:00.064Z,0.00
2017-12-05T00:11:58.563Z,0.00
2017-12-05T00:12:58.171Z,0.00
2017-12-05T00:13:58.111Z,0.00
2017-12-05T00:14:57.808Z,0.00
2017-12-05T00:15:57.879Z,0.00
2017-12-05T00:16:58.548Z,0.00
2017-12-05T00:17:58.875Z,0.00
2017-12-05T00:18:58.172Z,0.00
2017-12-05T00:19:57.968Z,0.00
2017-12-05T00:20:57.965Z,0.00
2017-12-05T00:21:58.030Z,0.00
2017-12-05T00:22:58.834Z,0.00
2017-12-05T00:23:58.656Z,0.00
2017-12-05T00:24:58.083Z,0.00
2017-12-05T00:25:58.190Z,0.00
2017-12-05T00:27:00.910Z,0.00
2017-12-05T00:27:58.460Z,0.00
2017-12-05T00:28:58.260Z,0.00
2017-12-05T00:29:59.522Z,0.00
2017-12-05T00:30:58.750Z,0.00
2017-12-05T00:31:58.347Z,0.00
2017-12-05T00:32:57.869Z,0.00
2017-12-05T00:33:59.156Z,0.00
2017-12-05T00:34:58.597Z,0.00
2017-12-05T00:35:58.975Z,0.00
2017-12-05T00:36:59.158Z,0.00
2017-12-05T00:38:25.492Z,0.00
2017-12-05T00:39:25.688Z,0.00
2017-12-05T00:40:26.143Z,0.00
2017-12-05T00:41:25.555Z,0.00
2017-12-05T00:42:25.891Z,0.00
2017-12-05T00:43:25.316Z,0.00
2017-12-05T00:44:25.631Z,0.00
2017-12-05T00:45:25.818Z,0.00
2017-12-05T00:46:25.162Z,0.00
2017-12-05T00:47:26.219Z,0.00
2017-12-05T00:48:26.432Z,0.00
2017-12-05T00:49:24.937Z,0.00
2017-12-05T00:50:26.220Z,0.00
2017-12-05T00:51:25.539Z,0.00
2017-12-05T00:52:25.684Z,0.00
2017-12-05T00:53:25.074Z,0.00
2017-12-05T00:54:26.384Z,0.00
2017-12-05T00:55:25.674Z,0.00
2017-12-05T00:56:25.630Z,0.00
2017-12-05T00:57:25.020Z,0.00
2017-12-05T00:58:25.385Z,0.00
2017-12-05T00:59:24.791Z,0.00
2017-12-05T01:00:25.358Z,0.00
2017-12-05T01:01:51.659Z,0.00
2017-12-05T01:02:51.037Z,0.00
2017-12-05T01:03:52.263Z,0.00
2017-12-05T01:04:52.129Z,0.00
2017-12-05T01:06:18.348Z,0.00
2017-12-05T01:07:17.686Z,0.00
2017-12-05T01:08:18.149Z,0.00
2017-12-05T01:09:19.300Z,0.00
2017-12-05T01:10:18.533Z,0.00
2017-12-05T01:11:17.913Z,0.00
2017-12-05T01:12:44.381Z,0.00
2017-12-05T01:13:45.633Z,0.00
2017-12-05T01:14:45.752Z,0.00
2017-12-05T01:15:45.954Z,0.00
2017-12-05T01:16:44.284Z,0.00
2017-12-05T01:17:45.840Z,0.00
2017-12-05T01:18:46.037Z,0.00
2017-12-05T01:19:45.260Z,0.00
2017-12-05T01:20:44.563Z,0.00
2017-12-05T01:21:45.893Z,0.00
2017-12-05T01:22:44.331Z,0.00
2017-12-05T01:23:45.429Z,0.00
2017-12-05T01:24:45.666Z,0.00
2017-12-05T01:25:45.066Z,0.00
2017-12-05T01:27:13.351Z,0.00
2017-12-05T01:29:06.991Z,0.00
2017-12-05T01:30:07.393Z,0.00
2017-12-05T01:31:07.721Z,0.00
2017-12-05T01:32:07.983Z,0.00
2017-12-05T01:33:08.150Z,0.00
2017-12-05T01:34:07.526Z,0.00
2017-12-05T01:35:07.908Z,0.00
2017-12-05T01:36:07.234Z,0.00
2017-12-05T01:37:08.540Z,0.00
2017-12-05T01:38:07.929Z,0.00
2017-12-05T01:39:07.398Z,0.00
2017-12-05T01:40:33.886Z,0.00
2017-12-05T01:41:34.201Z,0.00
2017-12-05T01:42:35.509Z,0.00
2017-12-05T01:43:35.338Z,0.00
2017-12-05T01:44:35.534Z,0.00
2017-12-05T01:45:35.682Z,0.00
2017-12-05T01:46:34.985Z,0.00
2017-12-05T01:47:35.325Z,0.00
2017-12-05T01:48:35.511Z,0.00
2017-12-05T01:49:34.747Z,0.00
2017-12-05T01:50:34.886Z,0.00
2017-12-05T01:51:35.238Z,0.00
2017-12-05T01:52:34.654Z,0.00
2017-12-05T01:53:34.811Z,0.00
2017-12-05T01:54:35.001Z,0.00
2017-12-05T01:55:35.097Z,0.00
2017-12-05T01:56:35.156Z,0.00
2017-12-05T01:57:35.329Z,0.00
2017-12-05T01:58:35.483Z,0.00
2017-12-05T01:59:35.635Z,0.00
2017-12-05T02:00:33.937Z,0.00
2017-12-05T02:01:35.095Z,0.00
2017-12-05T02:02:34.539Z,0.00
2017-12-05T02:04:00.073Z,0.00
2017-12-05T02:05:00.525Z,0.00
2017-12-05T02:06:00.107Z,0.00
2017-12-05T02:07:01.265Z,0.00
2017-12-05T02:08:00.594Z,0.00
2017-12-05T02:09:02.007Z,0.00
2017-12-05T02:10:01.282Z,0.00
2017-12-05T02:11:01.573Z,0.00
2017-12-05T02:12:00.943Z,0.00
2017-12-05T02:13:01.088Z,0.00
2017-12-05T02:14:00.445Z,0.00
2017-12-05T02:15:00.900Z,0.00
2017-12-05T02:16:01.157Z,0.00
2017-12-05T02:17:00.434Z,0.00
2017-12-05T02:18:01.646Z,0.00
2017-12-05T02:19:01.819Z,0.00
2017-12-05T02:20:00.174Z,0.00
2017-12-05T02:21:01.446Z,0.00
2017-12-05T02:22:00.787Z,0.00
2017-12-05T02:23:00.906Z,0.00
2017-12-05T02:24:00.325Z,0.00
2017-12-05T02:25:00.655Z,0.00
2017-12-05T02:26:01.843Z,0.00
2017-12-05T02:27:00.128Z,0.00
2017-12-05T02:28:00.545Z,0.00
2017-12-05T02:29:00.923Z,0.00
2017-12-05T02:30:00.250Z,0.00
2017-12-05T02:31:01.435Z,0.00
2017-12-05T02:32:00.756Z,0.00
2017-12-05T02:33:00.943Z,0.00
2017-12-05T02:34:00.514Z,0.00
2017-12-05T02:35:00.809Z,0.00
2017-12-05T02:36:00.948Z,0.00
2017-12-05T02:37:01.055Z,0.00
2017-12-05T02:38:01.180Z,0.00
2017-12-05T02:39:01.302Z,0.00
2017-12-05T02:40:01.427Z,0.00
2017-12-05T02:41:01.287Z,0.00
2017-12-05T02:42:01.161Z,0.00
2017-12-05T02:43:01.719Z,0.00
2017-12-05T02:44:01.856Z,0.00
2017-12-05T02:45:00.943Z,0.00
2017-12-05T02:46:00.325Z,0.00
2017-12-05T02:47:02.288Z,0.00
2017-12-05T02:48:00.647Z,0.00
2017-12-05T02:49:01.057Z,0.00
2017-12-05T02:50:00.390Z,0.00
2017-12-05T02:51:00.754Z,0.00
2017-12-05T02:52:00.083Z,0.00
2017-12-05T02:53:01.325Z,0.00
2017-12-05T02:54:01.563Z,0.00
2017-12-05T02:55:01.701Z,0.00
2017-12-05T02:56:01.949Z,0.00
2017-12-05T02:57:01.096Z,0.00
2017-12-05T02:58:00.436Z,0.00
2017-12-05T02:59:00.869Z,0.00
2017-12-05T03:00:00.203Z,0.00
2017-12-05T03:01:00.592Z,0.00
2017-12-05T03:02:01.921Z,0.00
2017-12-05T03:03:00.843Z,0.00
2017-12-05T03:04:00.140Z,0.00
2017-12-05T03:05:00.500Z,0.00
2017-12-05T03:06:00.922Z,0.00
2017-12-05T03:07:01.233Z,0.00
2017-12-05T03:08:00.574Z,0.00
2017-12-05T03:09:01.648Z,0.00
2017-12-05T03:10:01.814Z,0.00
2017-12-05T03:11:01.082Z,0.00
2017-12-05T03:12:01.202Z,0.00
2017-12-05T03:13:01.400Z,0.00
2017-12-05T03:14:27.013Z,0.00
2017-12-05T03:15:27.473Z,0.00
2017-12-05T03:16:27.803Z,0.00
2017-12-05T03:17:27.103Z,0.00
2017-12-05T03:18:27.452Z,0.00
2017-12-05T03:19:27.761Z,0.00
2017-12-05T03:20:28.468Z,0.00
2017-12-05T03:21:28.767Z,0.00
2017-12-05T03:22:27.926Z,0.00
2017-12-05T03:23:27.367Z,0.00
2017-12-05T03:24:28.606Z,0.00
2017-12-05T03:25:28.783Z,0.00
2017-12-05T03:26:27.890Z,0.00
2017-12-05T03:27:28.064Z,0.00
2017-12-05T03:28:28.394Z,0.00
2017-12-05T03:29:28.577Z,0.00
2017-12-05T03:30:28.083Z,0.00
2017-12-05T03:31:27.414Z,0.00
2017-12-05T03:32:27.812Z,0.00
2017-12-05T03:33:27.224Z,0.00
2017-12-05T03:34:27.607Z,0.00
2017-12-05T03:35:27.027Z,0.00
2017-12-05T03:36:28.156Z,0.00
2017-12-05T03:37:27.090Z,0.00
2017-12-05T03:38:28.077Z,0.00
2017-12-05T03:39:27.359Z,0.00
2017-12-05T03:40:28.542Z,0.00
2017-12-05T03:41:28.753Z,0.00
2017-12-05T03:42:28.478Z,0.00
2017-12-05T03:43:28.091Z,0.00
2017-12-05T03:44:28.211Z,0.00
2017-12-05T03:45:28.449Z,0.00
2017-12-05T03:46:28.644Z,0.00
2017-12-05T03:47:27.932Z,0.00
2017-12-05T03:48:28.124Z,0.00
2017-12-05T03:49:27.566Z,0.00
2017-12-05T03:50:28.801Z,0.00
2017-12-05T03:51:28.040Z,0.00
2017-12-05T03:52:27.414Z,0.00
2017-12-05T03:53:28.589Z,0.00
2017-12-05T03:54:27.300Z,0.00
2017-12-05T03:55:27.178Z,0.00
2017-12-05T03:56:28.565Z,0.00
2017-12-05T03:57:28.807Z,0.00
2017-12-05T03:58:27.988Z,0.00
2017-12-05T03:59:27.307Z,0.00
2017-12-05T04:00:27.788Z,0.00
2017-12-05T04:01:28.047Z,0.00
2017-12-05T04:02:27.415Z,0.00
2017-12-05T04:03:28.609Z,0.00
2017-12-05T04:04:27.983Z,0.00
2017-12-05T04:05:27.340Z,0.00
2017-12-05T04:06:27.674Z,0.00
2017-12-05T04:07:55.834Z,0.00
2017-12-05T04:08:56.156Z,0.00
2017-12-05T04:09:56.195Z,0.00
2017-12-05T04:10:56.415Z,0.00
2017-12-05T04:11:56.644Z,0.00
2017-12-05T04:12:56.310Z,0.00
2017-12-05T04:13:55.778Z,0.00
2017-12-05T04:14:55.513Z,0.00
2017-12-05T04:15:55.988Z,0.00
2017-12-05T04:16:56.715Z,0.00
2017-12-05T04:17:55.435Z,0.00
2017-12-05T04:18:56.387Z,0.00
2017-12-05T04:19:55.799Z,0.00
2017-12-05T04:20:55.435Z,0.00
2017-12-05T04:21:56.846Z,0.00
2017-12-05T04:22:56.159Z,0.00
2017-12-05T04:23:55.817Z,0.00
2017-12-05T04:24:55.432Z,0.00
2017-12-05T04:25:56.799Z,0.00
2017-12-05T04:26:56.088Z,0.00
2017-12-05T04:27:56.595Z,0.00
2017-12-05T04:28:56.928Z,0.00
2017-12-05T04:29:55.825Z,0.00
2017-12-05T04:30:56.264Z,0.00
2017-12-05T04:31:56.642Z,0.00
2017-12-05T04:33:26.858Z,0.00
2017-12-05T04:34:27.425Z,0.00
2017-12-05T04:35:27.544Z,0.00
2017-12-05T04:36:26.803Z,0.00
2017-12-05T04:37:27.393Z,0.00
2017-12-05T04:38:26.216Z,0.00
2017-12-05T04:39:26.665Z,0.00
2017-12-05T04:40:55.318Z,0.00
2017-12-05T04:41:55.671Z,0.00
2017-12-05T04:42:56.106Z,0.00
2017-12-05T04:44:21.506Z,0.00
2017-12-05T04:45:22.186Z,0.00
2017-12-05T04:46:21.735Z,0.00
2017-12-05T04:47:22.629Z,0.00
2017-12-05T04:48:23.001Z,0.00
2017-12-05T04:49:22.517Z,0.00
2017-12-05T04:50:22.231Z,0.00
2017-12-05T04:51:22.769Z,0.00
2017-12-05T04:52:22.232Z,0.00
2017-12-05T04:53:22.127Z,0.00
2017-12-05T04:54:21.718Z,0.00
2017-12-05T04:55:22.369Z,0.00
2017-12-05T04:56:50.447Z,0.00
2017-12-05T04:57:50.787Z,0.00
2017-12-05T04:58:50.656Z,0.00
2017-12-05T04:59:49.927Z,0.00
2017-12-05T05:00:49.845Z,0.00
2017-12-05T05:01:51.186Z,0.00
2017-12-05T05:02:50.886Z,0.00
2017-12-05T05:03:50.736Z,0.00
2017-12-05T05:04:50.122Z,0.00
2017-12-05T05:05:50.658Z,0.00
2017-12-05T05:06:50.377Z,0.00
2017-12-05T05:07:49.882Z,0.00
2017-12-05T05:08:51.377Z,0.00
2017-12-05T05:09:51.045Z,0.00
2017-12-05T05:10:50.521Z,0.00
2017-12-05T05:11:50.023Z,0.00
2017-12-05T05:12:51.857Z,0.00
2017-12-05T05:13:51.241Z,0.00
2017-12-05T05:14:51.164Z,0.00
2017-12-05T05:15:50.227Z,0.00
2017-12-05T05:16:51.152Z,0.00
2017-12-05T05:17:51.169Z,0.00
2017-12-05T05:18:50.795Z,0.00
2017-12-05T05:19:50.902Z,0.00
2017-12-05T05:20:51.463Z,0.00
2017-12-05T05:21:51.396Z,0.00
2017-12-05T05:22:50.994Z,0.00
2017-12-05T05:23:50.674Z,0.00
2017-12-05T05:24:50.208Z,0.00
2017-12-05T05:25:51.226Z,0.00
2017-12-05T05:26:50.610Z,0.00
2017-12-05T05:27:50.194Z,0.00
2017-12-05T05:28:51.312Z,0.00
2017-12-05T05:29:50.205Z,0.00
2017-12-05T05:30:50.491Z,0.00
2017-12-05T05:31:50.882Z,0.00
2017-12-05T05:32:51.516Z,0.00
2017-12-05T05:33:50.770Z,0.00
2017-12-05T05:34:51.084Z,0.00
2017-12-05T05:35:55.731Z,0.00
2017-12-05T05:37:34.121Z,2.00
2017-12-05T05:38:34.958Z,2.00
2017-12-05T05:39:35.074Z,2.00
2017-12-05T05:40:34.737Z,2.00
2017-12-05T05:41:34.540Z,2.00
2017-12-05T05:42:34.365Z,2.00
2017-12-05T05:43:34.602Z,2.00
2017-12-05T05:44:34.257Z,2.00
2017-12-05T05:45:34.559Z,2.00
2017-12-05T05:46:34.371Z,2.00
2017-12-05T05:47:34.161Z,2.00
2017-12-05T05:48:34.200Z,2.00
2017-12-05T05:49:35.333Z,2.00
2017-12-05T05:50:33.919Z,2.00
2017-12-05T05:51:34.589Z,3.00
2017-12-05T05:52:34.176Z,2.00
2017-12-05T05:53:34.872Z,2.00
2017-12-05T05:54:34.649Z,2.00
2017-12-05T05:55:34.291Z,2.00
2017-12-05T05:56:34.017Z,3.00
2017-12-05T05:57:34.772Z,2.00
2017-12-05T05:58:34.281Z,2.00
2017-12-05T05:59:34.022Z,0.00
2017-12-05T06:00:34.021Z,0.00
2017-12-05T06:01:34.766Z,0.00
2017-12-05T06:02:34.523Z,0.00
2017-12-05T06:03:34.230Z,2.00
2017-12-05T06:04:33.927Z,2.00
2017-12-05T06:05:34.644Z,2.00
2017-12-05T06:06:34.232Z,2.00
2017-12-05T06:08:26.883Z,0.00
2017-12-05T06:09:27.486Z,0.00
2017-12-05T06:10:26.923Z,0.00
2017-12-05T06:11:26.931Z,0.00
2017-12-05T06:12:27.709Z,0.00
2017-12-05T06:13:27.773Z,0.00
2017-12-05T06:14:27.510Z,0.00
2017-12-05T06:15:27.416Z,0.00
2017-12-05T06:16:27.174Z,0.00
2017-12-05T06:17:28.458Z,0.00
2017-12-05T06:18:26.785Z,0.00
2017-12-05T06:19:27.246Z,0.00
2017-12-05T06:20:27.756Z,0.00
2017-12-05T06:21:27.180Z,0.00
2017-12-05T06:22:27.585Z,0.00
2017-12-05T06:23:27.055Z,0.00
2017-12-05T06:24:27.679Z,0.00
2017-12-05T06:25:27.212Z,0.00
2017-12-05T06:26:27.892Z,0.00
2017-12-05T06:27:26.827Z,0.00
2017-12-05T06:28:27.442Z,0.00
2017-12-05T06:29:26.988Z,0.00
2017-12-05T06:30:27.671Z,0.00
2017-12-05T06:31:27.278Z,0.00
2017-12-05T06:32:27.080Z,0.00
2017-12-05T06:33:27.536Z,0.00
2017-12-05T06:34:27.200Z,0.00
2017-12-05T06:35:54.004Z,0.00
2017-12-05T06:36:54.866Z,0.00
2017-12-05T06:37:54.904Z,0.00
2017-12-05T06:38:54.362Z,0.00
2017-12-05T06:39:55.166Z,1.00
2017-12-05T06:40:54.843Z,1.00
2017-12-05T06:41:54.773Z,1.00
2017-12-05T06:42:55.050Z,0.00
2017-12-05T06:43:55.312Z,1.00
2017-12-05T06:44:54.926Z,1.00
2017-12-05T06:45:54.593Z,1.00
2017-12-05T06:46:54.863Z,1.00
2017-12-05T06:47:54.896Z,1.00
2017-12-05T06:48:54.448Z,2.00
2017-12-05T06:49:55.006Z,1.00
2017-12-05T06:50:54.994Z,2.00
2017-12-05T06:51:55.072Z,3.00
2017-12-05T06:53:22.430Z,3.00
2017-12-05T06:54:23.080Z,3.00
2017-12-05T06:55:21.762Z,4.00
2017-12-05T06:56:22.726Z,7.00
2017-12-05T06:57:22.526Z,6.00
2017-12-05T06:58:22.696Z,7.00
2017-12-05T06:59:22.309Z,8.00
2017-12-05T07:00:22.236Z,9.00
2017-12-05T07:01:21.821Z,13.00
2017-12-05T07:02:22.432Z,16.00
2017-12-05T07:03:21.887Z,17.00
2017-12-05T07:04:22.373Z,19.00
2017-12-05T07:05:22.368Z,25.00
2017-12-05T07:06:23.204Z,26.00
2017-12-05T07:07:21.701Z,33.00
2017-12-05T07:08:22.671Z,29.00
2017-12-05T07:09:22.479Z,43.00
2017-12-05T07:10:23.060Z,40.00
2017-12-05T07:11:21.550Z,42.00
2017-12-05T07:12:22.053Z,63.00
2017-12-05T07:13:21.513Z,57.00
2017-12-05T07:14:21.972Z,65.00
2017-12-05T07:15:22.487Z,84.00
2017-12-05T07:16:22.088Z,101.00
2017-12-05T07:17:21.618Z,117.00
2017-12-05T07:18:22.125Z,131.00
2017-12-05T07:19:21.578Z,159.00
2017-12-05T07:20:22.139Z,138.00
2017-12-05T07:21:21.666Z,182.00
2017-12-05T07:22:22.780Z,181.00
2017-12-05T07:23:22.277Z,235.00
2017-12-05T07:24:21.808Z,246.00
2017-12-05T07:25:21.489Z,312.00
2017-12-05T07:26:21.923Z,302.00
2017-12-05T07:27:22.352Z,255.00
2017-12-05T07:28:21.893Z,236.00
2017-12-05T07:29:22.421Z,232.00
2017-12-05T07:30:21.964Z,263.00
2017-12-05T07:31:22.409Z,275.00
2017-12-05T07:32:22.058Z,423.00
2017-12-05T07:33:47.717Z,480.00
2017-12-05T07:35:14.453Z,616.00
2017-12-05T07:36:15.082Z,540.00
2017-12-05T07:37:15.051Z,525.00
2017-12-05T07:38:14.607Z,565.00
2017-12-05T07:39:15.113Z,508.00
2017-12-05T07:40:40.732Z,482.00
2017-12-05T07:41:41.345Z,613.00
2017-12-05T07:42:40.837Z,679.00
2017-12-05T07:43:41.333Z,718.00
2017-12-05T07:44:40.851Z,794.00
2017-12-05T07:45:41.360Z,827.00
2017-12-05T07:46:41.019Z,736.00
2017-12-05T07:47:41.560Z,757.00
2017-12-05T07:49:07.264Z,888.00
2017-12-05T07:50:35.842Z,896.00
2017-12-05T07:52:03.950Z,1175.00
2017-12-05T07:53:04.525Z,1311.00
2017-12-05T07:54:04.013Z,1146.00
2017-12-05T07:55:04.532Z,919.00
2017-12-05T07:56:04.045Z,1060.00
2017-12-05T07:57:04.655Z,1247.00
2017-12-05T07:58:04.305Z,1383.00
2017-12-05T07:59:03.966Z,1304.00
2017-12-05T08:00:04.524Z,1516.00
2017-12-05T08:01:04.227Z,1862.00
2017-12-05T08:02:04.807Z,1225.00
2017-12-05T08:03:04.359Z,1232.00
2017-12-05T08:04:03.906Z,1111.00
2017-12-05T08:05:04.508Z,1271.00
2017-12-05T08:06:04.208Z,1061.00
2017-12-05T08:07:04.798Z,980.00
2017-12-05T08:08:04.395Z,1381.00
2017-12-05T08:09:04.181Z,1295.00
2017-12-05T08:10:04.013Z,1447.00
2017-12-05T08:11:58.112Z,1507.00
2017-12-05T08:12:58.770Z,1806.00
2017-12-05T08:13:58.441Z,1898.00
2017-12-05T08:14:58.688Z,2073.00
2017-12-05T08:15:58.542Z,2224.00
2017-12-05T08:16:58.232Z,2041.00
2017-12-05T08:17:58.873Z,1510.00
2017-12-05T08:18:58.438Z,1732.00
2017-12-05T08:19:58.926Z,2639.00
2017-12-05T08:20:58.500Z,3282.00
2017-12-05T08:21:59.100Z,4112.00
2017-12-05T08:22:58.751Z,4256.00
2017-12-05T08:23:58.272Z,3670.00
2017-12-05T08:24:58.849Z,2790.00
2017-12-05T08:25:58.446Z,2036.00
2017-12-05T08:26:58.982Z,1828.00
2017-12-05T08:27:58.585Z,1569.00
2017-12-05T08:28:58.157Z,2266.00
2017-12-05T08:29:58.203Z,3059.00
2017-12-05T08:30:58.786Z,3103.00
2017-12-05T08:31:58.316Z,3286.00
2017-12-05T08:32:58.896Z,3250.00
2017-12-05T08:33:58.696Z,2888.00
2017-12-05T08:34:58.210Z,2826.00
2017-12-05T08:35:58.770Z,2610.00
2017-12-05T08:37:25.498Z,1855.00
2017-12-05T08:38:26.590Z,1528.00
2017-12-05T08:39:26.152Z,1644.00
2017-12-05T08:40:25.688Z,2127.00
2017-12-05T08:41:26.170Z,2517.00
2017-12-05T08:42:25.700Z,2572.00
2017-12-05T08:43:25.512Z,2368.00
2017-12-05T08:44:26.383Z,1902.00
2017-12-05T08:45:25.924Z,1755.00
2017-12-05T08:46:26.545Z,2149.00
2017-12-05T08:47:26.152Z,2278.00
2017-12-05T08:48:25.794Z,2032.00
2017-12-05T08:49:26.476Z,1908.00
2017-12-05T08:50:26.148Z,1578.00
2017-12-05T08:51:52.174Z,1278.00
2017-12-05T08:52:52.831Z,1229.00
2017-12-05T08:53:52.483Z,1288.00
2017-12-05T08:54:53.050Z,1648.00
2017-12-05T08:56:18.763Z,2030.00
2017-12-05T08:57:19.279Z,2231.00
2017-12-05T08:58:19.171Z,2941.00
2017-12-05T08:59:19.700Z,3389.00
2017-12-05T09:00:19.230Z,3565.00
2017-12-05T09:01:45.979Z,3712.00
2017-12-05T09:02:46.508Z,4122.00
2017-12-05T09:03:45.991Z,4539.00
2017-12-05T09:04:46.699Z,5264.00
2017-12-05T09:05:46.277Z,5598.00
2017-12-05T09:06:46.759Z,5846.00
2017-12-05T09:07:46.292Z,6329.00
2017-12-05T09:08:46.808Z,7075.00
2017-12-05T09:09:46.296Z,7575.00
2017-12-05T09:10:46.819Z,7120.00
2017-12-05T09:11:46.618Z,6079.00
2017-12-05T09:12:46.510Z,5618.00
2017-12-05T09:13:46.238Z,6039.00
2017-12-05T09:14:46.739Z,6527.00
2017-12-05T09:15:46.313Z,6967.00
2017-12-05T09:16:46.829Z,7255.00
2017-12-05T09:17:46.366Z,7588.00
2017-12-05T09:18:46.952Z,7616.00
2017-12-05T09:19:46.482Z,7757.00
2017-12-05T09:20:46.173Z,7700.00
2017-12-05T09:21:46.951Z,7978.00
2017-12-05T09:22:46.568Z,7348.00
2017-12-05T09:23:46.146Z,7674.00
2017-12-05T09:24:46.791Z,7842.00
2017-12-05T09:26:12.679Z,7910.00
2017-12-05T09:27:13.336Z,7848.00
2017-12-05T09:28:12.892Z,7879.00
2017-12-05T09:29:13.329Z,7515.00
2017-12-05T09:30:13.265Z,7248.00
2017-12-05T09:31:12.821Z,7230.00
2017-12-05T09:32:13.346Z,7064.00
2017-12-05T09:33:12.860Z,7057.00
2017-12-05T09:34:13.354Z,7688.00
2017-12-05T09:35:12.838Z,7876.00
2017-12-05T09:36:13.474Z,7757.00
2017-12-05T09:37:13.276Z,7440.00
2017-12-05T09:38:12.817Z,7116.00
2017-12-05T09:39:13.329Z,6542.00
2017-12-05T09:40:12.949Z,6096.00
2017-12-05T09:41:13.481Z,6001.00
2017-12-05T09:42:13.008Z,5880.00
2017-12-05T09:43:13.572Z,5790.00
2017-12-05T09:44:13.108Z,5789.00
2017-12-05T09:45:13.669Z,6334.00
2017-12-05T09:46:13.178Z,6537.00
2017-12-05T09:47:12.777Z,6667.00
2017-12-05T09:48:13.460Z,6976.00
2017-12-05T09:49:12.687Z,7431.00
2017-12-05T09:50:39.456Z,7629.00
2017-12-05T09:51:40.033Z,6613.00
2017-12-05T09:52:41.444Z,8078.00
2017-12-05T09:53:40.424Z,8259.00
2017-12-05T09:54:39.903Z,7541.00
2017-12-05T09:55:39.571Z,7904.00
2017-12-05T09:56:40.064Z,8004.00
2017-12-05T09:57:39.685Z,8209.00
2017-12-05T09:58:40.204Z,8306.00
2017-12-05T09:59:39.523Z,8173.00
2017-12-05T10:00:40.135Z,7359.00
2017-12-05T10:01:39.918Z,6859.00
2017-12-05T10:02:40.677Z,6365.00
2017-12-05T10:03:40.211Z,5576.00
2017-12-05T10:04:39.757Z,5584.00
2017-12-05T10:05:40.261Z,6360.00
2017-12-05T10:06:39.688Z,6614.00
2017-12-05T10:07:40.503Z,6170.00
2017-12-05T10:08:40.470Z,5968.00
2017-12-05T10:09:39.700Z,5235.00
2017-12-05T10:10:40.232Z,5448.00
2017-12-05T10:11:39.932Z,6026.00
2017-12-05T10:12:40.464Z,6990.00
2017-12-05T10:13:40.372Z,8070.00
2017-12-05T10:14:39.851Z,7959.00
2017-12-05T10:15:40.482Z,7312.00
2017-12-05T10:16:40.248Z,7010.00
2017-12-05T10:17:39.850Z,6757.00
2017-12-05T10:18:42.263Z,6584.00
2017-12-05T10:19:40.040Z,6538.00
2017-12-05T10:20:39.596Z,6732.00
2017-12-05T10:21:40.135Z,7139.00
2017-12-05T10:22:40.385Z,7361.00
2017-12-05T10:23:40.037Z,7164.00
2017-12-05T10:24:39.870Z,6634.00
2017-12-05T10:25:39.613Z,6184.00
2017-12-05T10:26:40.061Z,6453.00
2017-12-05T10:27:39.828Z,6477.00
2017-12-05T10:28:41.019Z,6599.00
2017-12-05T10:29:39.548Z,6694.00
2017-12-05T10:30:40.343Z,6809.00
2017-12-05T10:31:40.413Z,6993.00
2017-12-05T10:32:39.643Z,7167.00
2017-12-05T10:33:40.082Z,7108.00
2017-12-05T10:34:39.548Z,6838.00
2017-12-05T10:35:40.030Z,6424.00
2017-12-05T10:36:40.171Z,6334.00
2017-12-05T10:37:39.743Z,6477.00
2017-12-05T10:38:40.335Z,6445.00
2017-12-05T10:39:39.936Z,6371.00
2017-12-05T10:40:40.439Z,6198.00
2017-12-05T10:41:40.040Z,6204.00
2017-12-05T10:42:39.596Z,6152.00
2017-12-05T10:43:40.131Z,6251.00
2017-12-05T10:44:39.857Z,6275.00
2017-12-05T10:45:40.488Z,6228.00
2017-12-05T10:46:40.325Z,6337.00
2017-12-05T10:47:40.240Z,6346.00
2017-12-05T10:48:40.071Z,6329.00
2017-12-05T10:49:40.206Z,6317.00
2017-12-05T10:50:39.832Z,6319.00
2017-12-05T10:51:41.361Z,6303.00
2017-12-05T10:52:39.837Z,6324.00
2017-12-05T10:53:40.474Z,6329.00
2017-12-05T10:54:40.034Z,6363.00
2017-12-05T10:56:05.872Z,6673.00
2017-12-05T10:57:33.652Z,6897.00
2017-12-05T10:58:33.243Z,7129.00
2017-12-05T10:59:33.247Z,7395.00
2017-12-05T11:00:32.947Z,7403.00
2017-12-05T11:01:32.858Z,7033.00
2017-12-05T11:02:33.403Z,6545.00
2017-12-05T11:03:33.023Z,6352.00
2017-12-05T11:04:33.606Z,6128.00
2017-12-05T11:05:33.219Z,5965.00
2017-12-05T11:06:33.700Z,6009.00
2017-12-05T11:07:33.252Z,6090.00
2017-12-05T11:08:32.892Z,5915.00
2017-12-05T11:09:33.507Z,6080.00
2017-12-05T11:10:33.076Z,6519.00
2017-12-05T11:11:33.563Z,6938.00
2017-12-05T11:12:59.584Z,7269.00
2017-12-05T11:14:00.134Z,7215.00
2017-12-05T11:14:59.771Z,7100.00
2017-12-05T11:16:00.312Z,7233.00
2017-12-05T11:16:59.887Z,7507.00
2017-12-05T11:18:00.396Z,7762.00
2017-12-05T11:18:59.904Z,8124.00
2017-12-05T11:20:00.459Z,8281.00
2017-12-05T11:21:00.072Z,7995.00
2017-12-05T11:21:59.675Z,7164.00
2017-12-05T11:23:00.180Z,6818.00
2017-12-05T11:23:59.705Z,6550.00
2017-12-05T11:25:00.532Z,6046.00
2017-12-05T11:26:00.409Z,5678.00
2017-12-05T11:26:59.971Z,5325.00
2017-12-05T11:28:00.583Z,5006.00
2017-12-05T11:29:00.171Z,4724.00
2017-12-05T11:30:26.155Z,4739.00
2017-12-05T11:31:52.954Z,5099.00
2017-12-05T11:32:53.566Z,4988.00
2017-12-05T11:34:20.476Z,4304.00
2017-12-05T11:35:20.691Z,4064.00
2017-12-05T11:36:21.206Z,3849.00
2017-12-05T11:37:20.897Z,3663.00
2017-12-05T11:38:46.943Z,3399.00
2017-12-05T11:39:46.985Z,3260.00
2017-12-05T11:40:47.869Z,3144.00
2017-12-05T11:41:47.414Z,3270.00
2017-12-05T11:42:46.930Z,3544.00
2017-12-05T11:43:47.519Z,4167.00
2017-12-05T11:44:47.376Z,5220.00
2017-12-05T11:45:46.920Z,6022.00
2017-12-05T11:46:47.845Z,6061.00
2017-12-05T11:47:47.683Z,6381.00
2017-12-05T11:48:47.264Z,6550.00
2017-12-05T11:49:47.773Z,6596.00
2017-12-05T11:50:47.291Z,6653.00
2017-12-05T11:51:47.810Z,6556.00
2017-12-05T11:52:47.545Z,6542.00
2017-12-05T11:54:13.347Z,6715.00
2017-12-05T11:55:14.053Z,6458.00
2017-12-05T11:56:41.522Z,4995.00
2017-12-05T11:57:41.670Z,4275.00
2017-12-05T11:58:43.185Z,4039.00
2017-12-05T11:59:41.809Z,3899.00
2017-12-05T12:00:41.858Z,3576.00
2017-12-05T12:01:42.105Z,3306.00
2017-12-05T12:02:41.655Z,3345.00
2017-12-05T12:03:42.260Z,4083.00
2017-12-05T12:04:41.746Z,4858.00
2017-12-05T12:05:42.275Z,5068.00
2017-12-05T12:06:42.068Z,4975.00
2017-12-05T12:08:07.927Z,4761.00
2017-12-05T12:09:08.482Z,4571.00
2017-12-05T12:10:07.990Z,4443.00
2017-12-05T12:11:08.426Z,4456.00
2017-12-05T12:12:08.212Z,4771.00
2017-12-05T12:13:08.254Z,5230.00
2017-12-05T12:14:08.675Z,5347.00
2017-12-05T12:15:08.202Z,5176.00
2017-12-05T12:16:08.746Z,5517.00
2017-12-05T12:17:08.600Z,5694.00
2017-12-05T12:18:08.420Z,6026.00
2017-12-05T12:19:08.202Z,6208.00
2017-12-05T12:20:08.823Z,6065.00
2017-12-05T12:21:09.397Z,5962.00
2017-12-05T12:22:08.475Z,6090.00
2017-12-05T12:23:08.380Z,6140.00
2017-12-05T12:24:08.381Z,6372.00
2017-12-05T12:25:08.408Z,6845.00
2017-12-05T12:26:08.968Z,7068.00
2017-12-05T12:27:08.506Z,7012.00
2017-12-05T12:28:08.084Z,6972.00
2017-12-05T12:29:08.628Z,7532.00
2017-12-05T12:30:08.350Z,8211.00
2017-12-05T12:31:08.937Z,8361.00
2017-12-05T12:32:08.627Z,8271.00
2017-12-05T12:33:08.273Z,8443.00
2017-12-05T12:34:35.142Z,8873.00
2017-12-05T12:35:35.686Z,8789.00
2017-12-05T12:36:35.178Z,8313.00
2017-12-05T12:38:02.330Z,8647.00
2017-12-05T12:39:02.840Z,8769.00
2017-12-05T12:40:02.463Z,8159.00
2017-12-05T12:41:02.935Z,7900.00
2017-12-05T12:42:02.494Z,7910.00
2017-12-05T12:43:03.640Z,7797.00
2017-12-05T12:44:03.160Z,7594.00
2017-12-05T12:45:02.697Z,7512.00
2017-12-05T12:46:02.388Z,7260.00
2017-12-05T12:47:03.150Z,7207.00
2017-12-05T12:48:02.693Z,7171.00
2017-12-05T12:49:02.390Z,6778.00
2017-12-05T12:50:02.906Z,6191.00
2017-12-05T12:51:02.827Z,5609.00
2017-12-05T12:52:02.466Z,5216.00
2017-12-05T12:53:02.658Z,4915.00
2017-12-05T12:54:03.366Z,4832.00
2017-12-05T12:55:03.057Z,4649.00
2017-12-05T12:56:02.625Z,4452.00
2017-12-05T12:57:03.164Z,4200.00
2017-12-05T12:58:02.787Z,3842.00
2017-12-05T12:59:02.510Z,3807.00
2017-12-05T13:00:03.041Z,4039.00
2017-12-05T13:01:02.559Z,3835.00
2017-12-05T13:02:03.161Z,3566.00
2017-12-05T13:03:02.770Z,3554.00
2017-12-05T13:04:02.407Z,3491.00
2017-12-05T13:05:03.077Z,3473.00
2017-12-05T13:06:02.921Z,3460.00
2017-12-05T13:07:02.438Z,3519.00